sensor_id;sensor_type;location;lat;lon;timestamp;P1;durP1;ratioP1;P2;durP2;ratioP2
22632;SDS011;11483;55.828;37.488;2022-08-21T00:01:50;64.20;;;34.00;;
22632;SDS011;11483;55.828;37.488;2022-08-21T00:04:16;68.90;;;34.72;;
22632;SDS011;11483;55.828;37.488;2022-08-21T00:06:41;67.20;;;33.92;;
22632;SDS011;11483;55.828;37.488;2022-08-21T00:09:07;68.63;;;34.88;;
22632;SDS011;11483;55.828;37.488;2022-08-21T00:11:34;74.43;;;35.70;;
22632;SDS011;11483;55.828;37.488;2022-08-21T00:14:02;72.88;;;35.38;;
22632;SDS011;11483;55.828;37.488;2022-08-21T00:16:28;76.35;;;36.30;;
22632;SDS011;11483;55.828;37.488;2022-08-21T00:18:55;67.78;;;34.97;;
22632;SDS011;11483;55.828;37.488;2022-08-21T00:21:20;77.05;;;35.42;;
22632;SDS011;11483;55.828;37.488;2022-08-21T00:23:47;73.30;;;35.10;;
22632;SDS011;11483;55.828;37.488;2022-08-21T00:26:13;69.72;;;34.28;;
22632;SDS011;11483;55.828;37.488;2022-08-21T00:28:39;74.43;;;37.88;;
22632;SDS011;11483;55.828;37.488;2022-08-21T00:31:05;69.23;;;36.23;;
22632;SDS011;11483;55.828;37.488;2022-08-21T00:33:31;77.35;;;38.53;;
22632;SDS011;11483;55.828;37.488;2022-08-21T00:35:57;77.43;;;37.30;;
22632;SDS011;11483;55.828;37.488;2022-08-21T00:38:23;72.20;;;37.42;;
22632;SDS011;11483;55.828;37.488;2022-08-21T00:40:50;76.97;;;37.97;;
22632;SDS011;11483;55.828;37.488;2022-08-21T00:43:20;71.45;;;35.58;;
22632;SDS011;11483;55.828;37.488;2022-08-21T00:45:49;71.00;;;36.95;;
22632;SDS011;11483;55.828;37.488;2022-08-21T00:48:15;73.90;;;36.87;;
22632;SDS011;11483;55.828;37.488;2022-08-21T00:50:44;76.68;;;38.35;;
22632;SDS011;11483;55.828;37.488;2022-08-21T00:53:15;68.20;;;36.08;;
22632;SDS011;11483;55.828;37.488;2022-08-21T00:55:42;75.93;;;37.38;;
22632;SDS011;11483;55.828;37.488;2022-08-21T00:58:11;76.63;;;36.15;;
22632;SDS011;11483;55.828;37.488;2022-08-21T01:00:38;72.72;;;36.70;;
22632;SDS011;11483;55.828;37.488;2022-08-21T01:03:10;70.23;;;35.50;;
22632;SDS011;11483;55.828;37.488;2022-08-21T01:05:39;74.60;;;36.85;;
22632;SDS011;11483;55.828;37.488;2022-08-21T01:08:05;69.40;;;34.93;;
22632;SDS011;11483;55.828;37.488;2022-08-21T01:10:33;63.90;;;35.07;;
22632;SDS011;11483;55.828;37.488;2022-08-21T01:13:00;65.23;;;35.07;;
22632;SDS011;11483;55.828;37.488;2022-08-21T01:15:29;67.93;;;35.10;;
22632;SDS011;11483;55.828;37.488;2022-08-21T01:17:59;64.03;;;34.47;;
22632;SDS011;11483;55.828;37.488;2022-08-21T01:20:26;69.05;;;35.25;;
22632;SDS011;11483;55.828;37.488;2022-08-21T01:22:52;70.07;;;35.00;;
22632;SDS011;11483;55.828;37.488;2022-08-21T01:25:18;69.97;;;35.27;;
22632;SDS011;11483;55.828;37.488;2022-08-21T01:27:47;66.95;;;34.20;;
22632;SDS011;11483;55.828;37.488;2022-08-21T01:30:16;65.22;;;33.83;;
22632;SDS011;11483;55.828;37.488;2022-08-21T01:32:48;66.85;;;35.15;;
22632;SDS011;11483;55.828;37.488;2022-08-21T01:35:16;67.10;;;34.90;;
22632;SDS011;11483;55.828;37.488;2022-08-21T01:37:43;65.50;;;34.20;;
22632;SDS011;11483;55.828;37.488;2022-08-21T01:40:11;67.78;;;33.17;;
22632;SDS011;11483;55.828;37.488;2022-08-21T01:42:46;68.30;;;34.05;;
22632;SDS011;11483;55.828;37.488;2022-08-21T01:45:13;66.70;;;33.42;;
22632;SDS011;11483;55.828;37.488;2022-08-21T01:47:40;70.30;;;33.37;;
22632;SDS011;11483;55.828;37.488;2022-08-21T01:50:08;66.05;;;33.25;;
22632;SDS011;11483;55.828;37.488;2022-08-21T01:52:36;63.50;;;32.80;;
22632;SDS011;11483;55.828;37.488;2022-08-21T01:55:03;65.40;;;32.50;;
22632;SDS011;11483;55.828;37.488;2022-08-21T01:57:31;62.10;;;32.65;;
22632;SDS011;11483;55.828;37.488;2022-08-21T01:59:57;60.17;;;31.63;;
22632;SDS011;11483;55.828;37.488;2022-08-21T02:02:24;67.68;;;32.95;;
22632;SDS011;11483;55.828;37.488;2022-08-21T02:04:49;67.90;;;32.17;;
22632;SDS011;11483;55.828;37.488;2022-08-21T02:07:16;63.87;;;32.17;;
22632;SDS011;11483;55.828;37.488;2022-08-21T02:09:42;70.32;;;31.63;;
22632;SDS011;11483;55.828;37.488;2022-08-21T02:12:09;58.13;;;30.65;;
22632;SDS011;11483;55.828;37.488;2022-08-21T02:14:36;66.03;;;31.73;;
22632;SDS011;11483;55.828;37.488;2022-08-21T02:17:02;57.45;;;30.77;;
22632;SDS011;11483;55.828;37.488;2022-08-21T02:19:28;63.53;;;31.37;;
22632;SDS011;11483;55.828;37.488;2022-08-21T02:21:54;66.20;;;31.10;;
22632;SDS011;11483;55.828;37.488;2022-08-21T02:24:20;78.90;;;31.43;;
22632;SDS011;11483;55.828;37.488;2022-08-21T02:26:45;61.25;;;29.83;;
22632;SDS011;11483;55.828;37.488;2022-08-21T02:29:11;57.28;;;29.52;;
22632;SDS011;11483;55.828;37.488;2022-08-21T02:31:37;64.95;;;30.42;;
22632;SDS011;11483;55.828;37.488;2022-08-21T02:34:03;57.45;;;30.17;;
22632;SDS011;11483;55.828;37.488;2022-08-21T02:36:29;60.40;;;29.73;;
22632;SDS011;11483;55.828;37.488;2022-08-21T02:38:55;57.92;;;29.80;;
22632;SDS011;11483;55.828;37.488;2022-08-21T02:41:21;59.70;;;28.98;;
22632;SDS011;11483;55.828;37.488;2022-08-21T02:43:48;61.60;;;28.70;;
22632;SDS011;11483;55.828;37.488;2022-08-21T02:46:16;57.97;;;28.43;;
22632;SDS011;11483;55.828;37.488;2022-08-21T02:48:44;55.38;;;28.60;;
22632;SDS011;11483;55.828;37.488;2022-08-21T02:51:13;56.37;;;28.87;;
22632;SDS011;11483;55.828;37.488;2022-08-21T02:53:42;57.65;;;28.13;;
22632;SDS011;11483;55.828;37.488;2022-08-21T02:56:10;57.97;;;29.20;;
22632;SDS011;11483;55.828;37.488;2022-08-21T02:58:38;57.08;;;29.17;;
22632;SDS011;11483;55.828;37.488;2022-08-21T03:01:07;56.00;;;28.53;;
22632;SDS011;11483;55.828;37.488;2022-08-21T03:03:37;58.40;;;29.03;;
22632;SDS011;11483;55.828;37.488;2022-08-21T03:06:04;57.88;;;29.35;;
22632;SDS011;11483;55.828;37.488;2022-08-21T03:08:31;64.07;;;29.03;;
22632;SDS011;11483;55.828;37.488;2022-08-21T03:10:57;55.83;;;29.15;;
22632;SDS011;11483;55.828;37.488;2022-08-21T03:13:24;57.67;;;29.35;;
22632;SDS011;11483;55.828;37.488;2022-08-21T03:15:50;57.15;;;28.27;;
22632;SDS011;11483;55.828;37.488;2022-08-21T03:18:16;65.45;;;29.02;;
22632;SDS011;11483;55.828;37.488;2022-08-21T03:20:42;58.40;;;29.52;;
22632;SDS011;11483;55.828;37.488;2022-08-21T03:23:10;56.27;;;28.83;;
22632;SDS011;11483;55.828;37.488;2022-08-21T03:25:37;57.40;;;29.08;;
22632;SDS011;11483;55.828;37.488;2022-08-21T03:28:05;55.55;;;28.40;;
22632;SDS011;11483;55.828;37.488;2022-08-21T03:30:32;59.77;;;29.63;;
22632;SDS011;11483;55.828;37.488;2022-08-21T03:32:58;50.88;;;29.08;;
22632;SDS011;11483;55.828;37.488;2022-08-21T03:35:25;59.95;;;29.70;;
22632;SDS011;11483;55.828;37.488;2022-08-21T03:37:52;56.45;;;30.15;;
22632;SDS011;11483;55.828;37.488;2022-08-21T03:40:19;63.40;;;29.93;;
22632;SDS011;11483;55.828;37.488;2022-08-21T03:42:46;55.88;;;29.63;;
22632;SDS011;11483;55.828;37.488;2022-08-21T03:45:13;57.60;;;29.23;;
22632;SDS011;11483;55.828;37.488;2022-08-21T03:48:00;59.97;;;30.23;;
22632;SDS011;11483;55.828;37.488;2022-08-21T03:50:28;60.03;;;29.15;;
22632;SDS011;11483;55.828;37.488;2022-08-21T03:52:56;58.47;;;29.67;;
22632;SDS011;11483;55.828;37.488;2022-08-21T03:55:23;56.53;;;29.73;;
22632;SDS011;11483;55.828;37.488;2022-08-21T03:57:50;64.63;;;30.30;;
22632;SDS011;11483;55.828;37.488;2022-08-21T04:00:16;57.23;;;30.37;;
22632;SDS011;11483;55.828;37.488;2022-08-21T04:02:44;56.50;;;29.70;;
22632;SDS011;11483;55.828;37.488;2022-08-21T04:05:11;59.30;;;29.80;;
22632;SDS011;11483;55.828;37.488;2022-08-21T04:07:38;54.47;;;29.95;;
22632;SDS011;11483;55.828;37.488;2022-08-21T04:10:04;62.10;;;30.33;;
22632;SDS011;11483;55.828;37.488;2022-08-21T04:12:31;69.53;;;31.48;;
22632;SDS011;11483;55.828;37.488;2022-08-21T04:14:57;63.50;;;30.75;;
22632;SDS011;11483;55.828;37.488;2022-08-21T04:17:23;55.92;;;29.88;;
22632;SDS011;11483;55.828;37.488;2022-08-21T04:19:50;57.08;;;29.92;;
22632;SDS011;11483;55.828;37.488;2022-08-21T04:22:16;56.90;;;30.87;;
22632;SDS011;11483;55.828;37.488;2022-08-21T04:24:42;59.92;;;29.88;;
22632;SDS011;11483;55.828;37.488;2022-08-21T04:27:08;58.60;;;30.80;;
22632;SDS011;11483;55.828;37.488;2022-08-21T04:29:34;57.42;;;31.75;;
22632;SDS011;11483;55.828;37.488;2022-08-21T04:31:59;58.03;;;30.67;;
22632;SDS011;11483;55.828;37.488;2022-08-21T04:34:25;58.47;;;31.57;;
22632;SDS011;11483;55.828;37.488;2022-08-21T04:36:51;58.90;;;32.17;;
22632;SDS011;11483;55.828;37.488;2022-08-21T04:39:17;60.30;;;32.25;;
22632;SDS011;11483;55.828;37.488;2022-08-21T04:41:43;59.33;;;32.43;;
22632;SDS011;11483;55.828;37.488;2022-08-21T04:44:09;68.80;;;32.50;;
22632;SDS011;11483;55.828;37.488;2022-08-21T04:46:34;66.78;;;32.75;;
22632;SDS011;11483;55.828;37.488;2022-08-21T04:49:00;63.08;;;33.28;;
22632;SDS011;11483;55.828;37.488;2022-08-21T04:51:30;70.30;;;33.95;;
22632;SDS011;11483;55.828;37.488;2022-08-21T04:54:20;65.45;;;33.35;;
22632;SDS011;11483;55.828;37.488;2022-08-21T04:56:57;69.47;;;34.58;;
22632;SDS011;11483;55.828;37.488;2022-08-21T04:59:31;64.60;;;34.08;;
22632;SDS011;11483;55.828;37.488;2022-08-21T05:02:01;67.70;;;33.92;;
22632;SDS011;11483;55.828;37.488;2022-08-21T05:04:29;62.80;;;34.10;;
22632;SDS011;11483;55.828;37.488;2022-08-21T05:06:59;73.57;;;35.42;;
22632;SDS011;11483;55.828;37.488;2022-08-21T05:09:29;63.08;;;34.90;;
22632;SDS011;11483;55.828;37.488;2022-08-21T05:11:55;63.45;;;34.97;;
22632;SDS011;11483;55.828;37.488;2022-08-21T05:14:21;75.43;;;36.73;;
22632;SDS011;11483;55.828;37.488;2022-08-21T05:16:47;68.28;;;36.28;;
22632;SDS011;11483;55.828;37.488;2022-08-21T05:19:13;73.00;;;36.85;;
22632;SDS011;11483;55.828;37.488;2022-08-21T05:21:40;72.82;;;37.13;;
22632;SDS011;11483;55.828;37.488;2022-08-21T05:24:07;69.95;;;36.83;;
22632;SDS011;11483;55.828;37.488;2022-08-21T05:26:34;68.88;;;36.85;;
22632;SDS011;11483;55.828;37.488;2022-08-21T05:29:02;77.60;;;37.28;;
22632;SDS011;11483;55.828;37.488;2022-08-21T05:31:28;72.72;;;36.85;;
22632;SDS011;11483;55.828;37.488;2022-08-21T05:33:54;69.88;;;37.40;;
22632;SDS011;11483;55.828;37.488;2022-08-21T05:36:20;68.68;;;37.63;;
22632;SDS011;11483;55.828;37.488;2022-08-21T05:38:46;64.87;;;37.23;;
22632;SDS011;11483;55.828;37.488;2022-08-21T05:41:12;74.28;;;38.45;;
22632;SDS011;11483;55.828;37.488;2022-08-21T05:43:37;77.65;;;38.45;;
22632;SDS011;11483;55.828;37.488;2022-08-21T05:46:03;70.43;;;38.20;;
22632;SDS011;11483;55.828;37.488;2022-08-21T05:48:31;69.38;;;37.55;;
22632;SDS011;11483;55.828;37.488;2022-08-21T05:51:03;81.20;;;38.80;;
22632;SDS011;11483;55.828;37.488;2022-08-21T05:53:37;75.35;;;38.13;;
22632;SDS011;11483;55.828;37.488;2022-08-21T05:56:03;73.35;;;38.97;;
22632;SDS011;11483;55.828;37.488;2022-08-21T05:58:31;79.57;;;40.47;;
22632;SDS011;11483;55.828;37.488;2022-08-21T06:00:58;75.20;;;39.08;;
22632;SDS011;11483;55.828;37.488;2022-08-21T06:03:25;74.07;;;38.30;;
22632;SDS011;11483;55.828;37.488;2022-08-21T06:05:58;78.18;;;39.30;;
22632;SDS011;11483;55.828;37.488;2022-08-21T06:08:24;73.80;;;39.03;;
22632;SDS011;11483;55.828;37.488;2022-08-21T06:10:51;73.22;;;38.83;;
22632;SDS011;11483;55.828;37.488;2022-08-21T06:13:18;71.50;;;38.22;;
22632;SDS011;11483;55.828;37.488;2022-08-21T06:15:45;81.33;;;38.53;;
22632;SDS011;11483;55.828;37.488;2022-08-21T06:18:14;76.18;;;36.33;;
22632;SDS011;11483;55.828;37.488;2022-08-21T06:20:41;75.80;;;37.20;;
22632;SDS011;11483;55.828;37.488;2022-08-21T06:23:07;68.97;;;37.58;;
22632;SDS011;11483;55.828;37.488;2022-08-21T06:25:41;75.38;;;38.50;;
22632;SDS011;11483;55.828;37.488;2022-08-21T06:28:10;71.45;;;36.40;;
22632;SDS011;11483;55.828;37.488;2022-08-21T06:30:37;66.63;;;36.50;;
22632;SDS011;11483;55.828;37.488;2022-08-21T06:33:04;69.60;;;36.03;;
22632;SDS011;11483;55.828;37.488;2022-08-21T06:35:31;65.57;;;34.95;;
22632;SDS011;11483;55.828;37.488;2022-08-21T06:37:58;70.50;;;36.30;;
22632;SDS011;11483;55.828;37.488;2022-08-21T06:40:24;71.50;;;35.15;;
22632;SDS011;11483;55.828;37.488;2022-08-21T06:42:51;65.20;;;35.78;;
22632;SDS011;11483;55.828;37.488;2022-08-21T06:45:17;68.35;;;35.92;;
22632;SDS011;11483;55.828;37.488;2022-08-21T06:47:43;65.80;;;34.75;;
22632;SDS011;11483;55.828;37.488;2022-08-21T06:50:09;66.33;;;34.57;;
22632;SDS011;11483;55.828;37.488;2022-08-21T06:52:36;73.50;;;34.97;;
22632;SDS011;11483;55.828;37.488;2022-08-21T06:55:04;63.28;;;33.78;;
22632;SDS011;11483;55.828;37.488;2022-08-21T06:57:31;68.47;;;34.53;;
22632;SDS011;11483;55.828;37.488;2022-08-21T07:00:00;65.50;;;32.15;;
22632;SDS011;11483;55.828;37.488;2022-08-21T07:02:27;62.50;;;32.33;;
22632;SDS011;11483;55.828;37.488;2022-08-21T07:04:56;58.65;;;32.97;;
22632;SDS011;11483;55.828;37.488;2022-08-21T07:07:23;59.73;;;30.70;;
22632;SDS011;11483;55.828;37.488;2022-08-21T07:09:53;65.83;;;32.00;;
22632;SDS011;11483;55.828;37.488;2022-08-21T07:12:19;59.10;;;31.67;;
22632;SDS011;11483;55.828;37.488;2022-08-21T07:14:45;55.38;;;30.77;;
22632;SDS011;11483;55.828;37.488;2022-08-21T07:17:11;59.33;;;29.37;;
22632;SDS011;11483;55.828;37.488;2022-08-21T07:19:36;65.90;;;30.37;;
22632;SDS011;11483;55.828;37.488;2022-08-21T07:22:02;59.45;;;28.95;;
22632;SDS011;11483;55.828;37.488;2022-08-21T07:24:28;55.40;;;28.58;;
22632;SDS011;11483;55.828;37.488;2022-08-21T07:26:54;63.35;;;30.40;;
22632;SDS011;11483;55.828;37.488;2022-08-21T07:29:21;57.90;;;28.63;;
22632;SDS011;11483;55.828;37.488;2022-08-21T07:31:47;54.40;;;27.47;;
22632;SDS011;11483;55.828;37.488;2022-08-21T07:34:12;62.45;;;29.23;;
22632;SDS011;11483;55.828;37.488;2022-08-21T07:36:39;59.40;;;28.35;;
22632;SDS011;11483;55.828;37.488;2022-08-21T07:39:05;51.77;;;26.83;;
22632;SDS011;11483;55.828;37.488;2022-08-21T07:41:31;60.08;;;27.08;;
22632;SDS011;11483;55.828;37.488;2022-08-21T07:43:57;54.20;;;27.85;;
22632;SDS011;11483;55.828;37.488;2022-08-21T07:46:24;57.08;;;28.17;;
22632;SDS011;11483;55.828;37.488;2022-08-21T07:48:50;56.85;;;27.40;;
22632;SDS011;11483;55.828;37.488;2022-08-21T07:51:17;59.80;;;27.58;;
22632;SDS011;11483;55.828;37.488;2022-08-21T07:53:49;54.30;;;27.35;;
22632;SDS011;11483;55.828;37.488;2022-08-21T07:56:16;57.83;;;25.95;;
22632;SDS011;11483;55.828;37.488;2022-08-21T07:58:42;43.97;;;24.17;;
22632;SDS011;11483;55.828;37.488;2022-08-21T08:01:08;51.53;;;24.90;;
22632;SDS011;11483;55.828;37.488;2022-08-21T08:03:35;45.55;;;24.17;;
22632;SDS011;11483;55.828;37.488;2022-08-21T08:06:01;51.05;;;25.75;;
22632;SDS011;11483;55.828;37.488;2022-08-21T08:08:29;48.40;;;25.80;;
22632;SDS011;11483;55.828;37.488;2022-08-21T08:10:56;48.72;;;25.52;;
22632;SDS011;11483;55.828;37.488;2022-08-21T08:13:24;52.25;;;25.48;;
22632;SDS011;11483;55.828;37.488;2022-08-21T08:15:50;48.38;;;25.08;;
22632;SDS011;11483;55.828;37.488;2022-08-21T08:18:16;47.60;;;25.43;;
22632;SDS011;11483;55.828;37.488;2022-08-21T08:20:42;48.03;;;25.00;;
22632;SDS011;11483;55.828;37.488;2022-08-21T08:23:12;49.58;;;24.02;;
22632;SDS011;11483;55.828;37.488;2022-08-21T08:25:38;58.33;;;24.13;;
22632;SDS011;11483;55.828;37.488;2022-08-21T08:28:05;44.72;;;22.38;;
22632;SDS011;11483;55.828;37.488;2022-08-21T08:30:31;43.63;;;20.47;;
22632;SDS011;11483;55.828;37.488;2022-08-21T08:32:57;42.63;;;19.93;;
22632;SDS011;11483;55.828;37.488;2022-08-21T08:35:24;42.00;;;18.95;;
22632;SDS011;11483;55.828;37.488;2022-08-21T08:37:51;49.63;;;20.13;;
22632;SDS011;11483;55.828;37.488;2022-08-21T08:40:23;45.97;;;19.17;;
22632;SDS011;11483;55.828;37.488;2022-08-21T08:42:54;40.03;;;19.40;;
22632;SDS011;11483;55.828;37.488;2022-08-21T08:45:20;42.22;;;19.83;;
22632;SDS011;11483;55.828;37.488;2022-08-21T08:47:52;44.20;;;19.50;;
22632;SDS011;11483;55.828;37.488;2022-08-21T08:53:08;41.20;;;19.53;;
22632;SDS011;11483;55.828;37.488;2022-08-21T08:55:41;36.30;;;18.55;;
22632;SDS011;11483;55.828;37.488;2022-08-21T08:58:11;37.97;;;17.90;;
22632;SDS011;11483;55.828;37.488;2022-08-21T09:00:46;43.55;;;18.17;;
22632;SDS011;11483;55.828;37.488;2022-08-21T09:03:14;43.70;;;19.03;;
22632;SDS011;11483;55.828;37.488;2022-08-21T09:11:32;49.33;;;19.25;;
22632;SDS011;11483;55.828;37.488;2022-08-21T09:20:11;40.25;;;16.10;;
22632;SDS011;11483;55.828;37.488;2022-08-21T09:25:28;26.35;;;12.02;;
22632;SDS011;11483;55.828;37.488;2022-08-21T09:27:57;28.27;;;12.05;;
22632;SDS011;11483;55.828;37.488;2022-08-21T09:30:25;31.08;;;11.88;;
22632;SDS011;11483;55.828;37.488;2022-08-21T09:32:53;28.48;;;12.13;;
22632;SDS011;11483;55.828;37.488;2022-08-21T09:42:53;29.58;;;13.40;;
22632;SDS011;11483;55.828;37.488;2022-08-21T09:45:24;32.90;;;14.33;;
22632;SDS011;11483;55.828;37.488;2022-08-21T09:47:51;35.03;;;13.90;;
22632;SDS011;11483;55.828;37.488;2022-08-21T09:50:19;35.63;;;14.25;;
22632;SDS011;11483;55.828;37.488;2022-08-21T09:52:54;30.85;;;15.00;;
22632;SDS011;11483;55.828;37.488;2022-08-21T09:55:34;29.73;;;13.68;;
22632;SDS011;11483;55.828;37.488;2022-08-21T09:58:29;26.77;;;13.60;;
22632;SDS011;11483;55.828;37.488;2022-08-21T10:00:58;28.08;;;12.45;;
22632;SDS011;11483;55.828;37.488;2022-08-21T10:03:25;34.63;;;11.15;;
22632;SDS011;11483;55.828;37.488;2022-08-21T10:05:56;19.98;;;11.05;;
22632;SDS011;11483;55.828;37.488;2022-08-21T10:08:31;26.25;;;11.07;;
22632;SDS011;11483;55.828;37.488;2022-08-21T10:11:04;29.17;;;10.30;;
22632;SDS011;11483;55.828;37.488;2022-08-21T10:13:50;29.75;;;10.75;;
22632;SDS011;11483;55.828;37.488;2022-08-21T10:24:59;29.45;;;11.35;;
22632;SDS011;11483;55.828;37.488;2022-08-21T10:30:34;31.20;;;11.75;;
22632;SDS011;11483;55.828;37.488;2022-08-21T10:35:51;29.27;;;11.27;;
22632;SDS011;11483;55.828;37.488;2022-08-21T10:50:12;41.70;;;11.00;;
22632;SDS011;11483;55.828;37.488;2022-08-21T10:55:16;25.85;;;8.57;;
22632;SDS011;11483;55.828;37.488;2022-08-21T11:06:21;20.10;;;7.63;;
22632;SDS011;11483;55.828;37.488;2022-08-21T11:09:04;23.30;;;8.50;;
22632;SDS011;11483;55.828;37.488;2022-08-21T11:12:01;21.95;;;7.30;;
22632;SDS011;11483;55.828;37.488;2022-08-21T11:14:41;22.35;;;7.50;;
22632;SDS011;11483;55.828;37.488;2022-08-21T11:17:18;31.87;;;7.07;;
22632;SDS011;11483;55.828;37.488;2022-08-21T11:19:59;17.42;;;6.57;;
22632;SDS011;11483;55.828;37.488;2022-08-21T11:22:49;21.77;;;5.95;;
22632;SDS011;11483;55.828;37.488;2022-08-21T11:25:33;23.88;;;5.22;;
22632;SDS011;11483;55.828;37.488;2022-08-21T11:28:04;22.10;;;5.40;;
22632;SDS011;11483;55.828;37.488;2022-08-21T11:30:47;19.07;;;5.27;;
22632;SDS011;11483;55.828;37.488;2022-08-21T11:47:46;22.63;;;7.63;;
22632;SDS011;11483;55.828;37.488;2022-08-21T11:50:28;28.08;;;7.20;;
22632;SDS011;11483;55.828;37.488;2022-08-21T11:53:00;20.25;;;6.97;;
22632;SDS011;11483;55.828;37.488;2022-08-21T11:56:02;24.48;;;8.65;;
22632;SDS011;11483;55.828;37.488;2022-08-21T11:58:41;32.67;;;10.02;;
22632;SDS011;11483;55.828;37.488;2022-08-21T12:01:19;30.15;;;10.77;;
22632;SDS011;11483;55.828;37.488;2022-08-21T12:04:02;23.60;;;10.95;;
22632;SDS011;11483;55.828;37.488;2022-08-21T12:06:34;30.15;;;11.07;;
22632;SDS011;11483;55.828;37.488;2022-08-21T12:09:05;28.83;;;11.40;;
22632;SDS011;11483;55.828;37.488;2022-08-21T12:17:40;24.23;;;8.85;;
22632;SDS011;11483;55.828;37.488;2022-08-21T12:25:37;29.38;;;8.88;;
22632;SDS011;11483;55.828;37.488;2022-08-21T12:28:09;27.52;;;8.68;;
22632;SDS011;11483;55.828;37.488;2022-08-21T12:30:39;22.58;;;8.40;;
22632;SDS011;11483;55.828;37.488;2022-08-21T12:33:22;23.55;;;7.97;;
22632;SDS011;11483;55.828;37.488;2022-08-21T12:35:52;26.20;;;8.82;;
22632;SDS011;11483;55.828;37.488;2022-08-21T12:38:29;26.75;;;8.40;;
22632;SDS011;11483;55.828;37.488;2022-08-21T12:41:03;19.97;;;8.30;;
22632;SDS011;11483;55.828;37.488;2022-08-21T12:43:56;22.05;;;8.27;;
22632;SDS011;11483;55.828;37.488;2022-08-21T12:46:31;20.55;;;7.93;;
22632;SDS011;11483;55.828;37.488;2022-08-21T12:49:16;21.02;;;8.15;;
22632;SDS011;11483;55.828;37.488;2022-08-21T12:52:02;20.92;;;7.55;;
22632;SDS011;11483;55.828;37.488;2022-08-21T12:54:47;25.02;;;8.43;;
22632;SDS011;11483;55.828;37.488;2022-08-21T12:57:20;26.02;;;7.88;;
22632;SDS011;11483;55.828;37.488;2022-08-21T12:59:52;22.33;;;8.30;;
22632;SDS011;11483;55.828;37.488;2022-08-21T13:02:21;26.55;;;8.02;;
22632;SDS011;11483;55.828;37.488;2022-08-21T13:04:50;18.92;;;7.43;;
22632;SDS011;11483;55.828;37.488;2022-08-21T13:07:28;22.73;;;8.05;;
22632;SDS011;11483;55.828;37.488;2022-08-21T13:10:00;22.67;;;8.35;;
22632;SDS011;11483;55.828;37.488;2022-08-21T13:12:31;28.88;;;9.15;;
22632;SDS011;11483;55.828;37.488;2022-08-21T13:15:00;26.52;;;8.65;;
22632;SDS011;11483;55.828;37.488;2022-08-21T13:17:30;23.40;;;8.23;;
22632;SDS011;11483;55.828;37.488;2022-08-21T13:20:02;17.43;;;8.33;;
22632;SDS011;11483;55.828;37.488;2022-08-21T13:22:39;27.02;;;7.93;;
22632;SDS011;11483;55.828;37.488;2022-08-21T13:25:09;18.15;;;6.90;;
22632;SDS011;11483;55.828;37.488;2022-08-21T13:27:38;20.08;;;7.07;;
22632;SDS011;11483;55.828;37.488;2022-08-21T13:32:44;19.52;;;7.18;;
22632;SDS011;11483;55.828;37.488;2022-08-21T13:37:48;17.42;;;6.97;;
22632;SDS011;11483;55.828;37.488;2022-08-21T13:40:22;20.35;;;8.05;;
22632;SDS011;11483;55.828;37.488;2022-08-21T13:42:53;20.77;;;8.13;;
22632;SDS011;11483;55.828;37.488;2022-08-21T13:45:25;18.60;;;7.90;;
22632;SDS011;11483;55.828;37.488;2022-08-21T13:47:55;25.42;;;8.27;;
22632;SDS011;11483;55.828;37.488;2022-08-21T13:50:24;22.60;;;7.30;;
22632;SDS011;11483;55.828;37.488;2022-08-21T13:52:57;30.08;;;7.50;;
22632;SDS011;11483;55.828;37.488;2022-08-21T13:55:41;22.83;;;7.40;;
22632;SDS011;11483;55.828;37.488;2022-08-21T13:58:09;22.20;;;7.50;;
22632;SDS011;11483;55.828;37.488;2022-08-21T14:00:47;23.92;;;8.25;;
22632;SDS011;11483;55.828;37.488;2022-08-21T14:05:56;27.90;;;8.55;;
22632;SDS011;11483;55.828;37.488;2022-08-21T14:08:40;29.85;;;8.80;;
22632;SDS011;11483;55.828;37.488;2022-08-21T14:11:09;21.95;;;8.35;;
22632;SDS011;11483;55.828;37.488;2022-08-21T14:13:45;22.10;;;8.70;;
22632;SDS011;11483;55.828;37.488;2022-08-21T14:16:19;22.15;;;9.13;;
22632;SDS011;11483;55.828;37.488;2022-08-21T14:18:52;22.40;;;8.50;;
22632;SDS011;11483;55.828;37.488;2022-08-21T14:21:33;25.50;;;9.40;;
22632;SDS011;11483;55.828;37.488;2022-08-21T14:26:36;27.50;;;8.65;;
22632;SDS011;11483;55.828;37.488;2022-08-21T14:29:15;19.02;;;7.97;;
22632;SDS011;11483;55.828;37.488;2022-08-21T14:31:42;19.50;;;8.30;;
22632;SDS011;11483;55.828;37.488;2022-08-21T14:34:14;15.50;;;6.32;;
22632;SDS011;11483;55.828;37.488;2022-08-21T14:36:42;21.55;;;7.10;;
22632;SDS011;11483;55.828;37.488;2022-08-21T14:39:08;24.93;;;8.73;;
22632;SDS011;11483;55.828;37.488;2022-08-21T14:41:35;18.90;;;9.30;;
22632;SDS011;11483;55.828;37.488;2022-08-21T14:44:02;20.40;;;9.40;;
22632;SDS011;11483;55.828;37.488;2022-08-21T14:46:29;19.63;;;8.77;;
22632;SDS011;11483;55.828;37.488;2022-08-21T14:48:57;23.13;;;9.07;;
22632;SDS011;11483;55.828;37.488;2022-08-21T14:51:23;16.23;;;6.88;;
22632;SDS011;11483;55.828;37.488;2022-08-21T14:53:49;15.70;;;5.97;;
22632;SDS011;11483;55.828;37.488;2022-08-21T14:56:15;14.37;;;5.83;;
22632;SDS011;11483;55.828;37.488;2022-08-21T14:58:42;15.00;;;5.28;;
22632;SDS011;11483;55.828;37.488;2022-08-21T15:01:12;20.23;;;5.22;;
22632;SDS011;11483;55.828;37.488;2022-08-21T15:03:39;12.77;;;4.60;;
22632;SDS011;11483;55.828;37.488;2022-08-21T15:06:06;13.40;;;4.28;;
22632;SDS011;11483;55.828;37.488;2022-08-21T15:08:35;9.70;;;3.55;;
22632;SDS011;11483;55.828;37.488;2022-08-21T15:11:02;12.63;;;3.25;;
22632;SDS011;11483;55.828;37.488;2022-08-21T15:13:29;11.68;;;3.20;;
22632;SDS011;11483;55.828;37.488;2022-08-21T15:15:56;9.93;;;3.10;;
22632;SDS011;11483;55.828;37.488;2022-08-21T15:18:23;8.97;;;3.23;;
22632;SDS011;11483;55.828;37.488;2022-08-21T15:20:50;10.48;;;2.88;;
22632;SDS011;11483;55.828;37.488;2022-08-21T15:23:17;21.55;;;3.28;;
22632;SDS011;11483;55.828;37.488;2022-08-21T15:25:44;16.95;;;3.55;;
22632;SDS011;11483;55.828;37.488;2022-08-21T15:28:13;11.40;;;2.58;;
22632;SDS011;11483;55.828;37.488;2022-08-21T15:30:40;10.13;;;2.83;;
22632;SDS011;11483;55.828;37.488;2022-08-21T15:33:07;12.73;;;3.05;;
22632;SDS011;11483;55.828;37.488;2022-08-21T15:35:34;15.77;;;2.72;;
22632;SDS011;11483;55.828;37.488;2022-08-21T15:38:00;8.27;;;2.10;;
22632;SDS011;11483;55.828;37.488;2022-08-21T15:40:27;10.63;;;2.15;;
22632;SDS011;11483;55.828;37.488;2022-08-21T15:42:55;14.20;;;2.22;;
22632;SDS011;11483;55.828;37.488;2022-08-21T15:45:25;7.22;;;2.10;;
22632;SDS011;11483;55.828;37.488;2022-08-21T15:47:51;7.03;;;2.03;;
22632;SDS011;11483;55.828;37.488;2022-08-21T15:50:18;8.23;;;2.40;;
22632;SDS011;11483;55.828;37.488;2022-08-21T15:52:45;4.78;;;1.90;;
22632;SDS011;11483;55.828;37.488;2022-08-21T15:55:11;10.83;;;2.10;;
22632;SDS011;11483;55.828;37.488;2022-08-21T15:57:37;6.70;;;1.88;;
22632;SDS011;11483;55.828;37.488;2022-08-21T16:02:41;8.93;;;2.30;;
22632;SDS011;11483;55.828;37.488;2022-08-21T16:05:09;15.05;;;2.22;;
22632;SDS011;11483;55.828;37.488;2022-08-21T16:07:37;10.55;;;2.00;;